createdAt,value
2022-11-18T00:01:51.867Z,11.75
2022-11-18T00:04:20.122Z,10.50
2022-11-18T00:06:47.994Z,11.50
2022-11-18T00:09:16.212Z,11.00
2022-11-18T00:12:02.392Z,10.50
2022-11-18T00:14:31.639Z,10.75
2022-11-18T00:17:01.435Z,10.00
2022-11-18T00:19:30.268Z,10.00
2022-11-18T00:21:58.432Z,10.00
2022-11-18T00:24:26.757Z,8.50
2022-11-18T00:26:54.657Z,9.50
2022-11-18T00:29:22.824Z,9.50
2022-11-18T00:31:52.393Z,9.50
2022-11-18T00:34:20.322Z,8.00
2022-11-18T00:36:48.461Z,8.50
2022-11-18T00:39:17.415Z,8.25
2022-11-18T00:42:03.236Z,9.00
2022-11-18T00:44:31.094Z,8.75
2022-11-18T00:47:00.354Z,9.25
2022-11-18T00:49:28.284Z,8.75
2022-11-18T00:51:56.438Z,6.75
2022-11-18T00:54:24.320Z,9.50
2022-11-18T00:56:52.227Z,8.75
2022-11-18T00:59:20.405Z,7.50
2022-11-18T01:01:49.099Z,8.00
2022-11-18T01:04:18.547Z,6.75
2022-11-18T01:06:46.392Z,7.75
2022-11-18T01:09:14.485Z,6.50
2022-11-18T01:11:59.726Z,7.00
2022-11-18T01:14:27.606Z,7.75
2022-11-18T01:16:56.134Z,7.00
2022-11-18T01:19:25.694Z,6.50
2022-11-18T01:21:54.018Z,6.25
2022-11-18T01:24:21.890Z,5.50
2022-11-18T01:26:49.840Z,5.75
2022-11-18T01:29:18.728Z,6.75
2022-11-18T01:32:09.360Z,6.50
2022-11-18T01:34:36.508Z,5.75
2022-11-18T01:37:04.351Z,5.00
2022-11-18T01:39:32.551Z,7.00
2022-11-18T01:42:00.699Z,5.25
2022-11-18T01:45:10.790Z,5.00
2022-11-18T01:47:41.494Z,5.25
2022-11-18T01:50:10.932Z,5.00
2022-11-18T01:52:39.062Z,5.75
2022-11-18T01:55:09.969Z,6.00
2022-11-18T01:57:37.812Z,6.00
2022-11-18T02:00:09.209Z,5.25
2022-11-18T02:02:38.054Z,5.50
2022-11-18T02:05:06.891Z,4.75
2022-11-18T02:07:36.406Z,5.00
2022-11-18T02:10:05.509Z,4.50
2022-11-18T02:12:33.687Z,5.50
2022-11-18T02:15:01.627Z,3.75
2022-11-18T02:17:35.027Z,4.00
2022-11-18T02:20:20.386Z,5.00
2022-11-18T02:23:03.082Z,5.00
2022-11-18T02:25:33.252Z,4.75
2022-11-18T02:28:19.796Z,4.00
2022-11-18T02:30:50.784Z,4.75
2022-11-18T02:33:19.533Z,5.00
2022-11-18T02:35:48.118Z,3.75
2022-11-18T02:38:17.855Z,4.50
2022-11-18T02:40:46.493Z,3.50
2022-11-18T02:43:16.756Z,4.75
2022-11-18T02:45:45.702Z,3.25
2022-11-18T02:48:14.959Z,3.00
2022-11-18T02:50:43.062Z,3.50
2022-11-18T02:53:11.748Z,4.00
2022-11-18T02:55:39.634Z,3.50
2022-11-18T02:58:07.547Z,3.50
2022-11-18T03:00:35.411Z,4.25
2022-11-18T03:03:22.877Z,3.50
2022-11-18T03:05:54.020Z,4.25
2022-11-18T03:08:23.836Z,3.50
2022-11-18T03:10:54.679Z,3.25
2022-11-18T03:13:25.428Z,3.25
2022-11-18T03:15:56.001Z,2.75
2022-11-18T03:18:28.648Z,4.00
2022-11-18T03:20:58.983Z,4.00
2022-11-18T03:23:28.745Z,3.00
2022-11-18T03:25:57.682Z,4.00
2022-11-18T03:28:27.467Z,3.25
2022-11-18T03:30:57.010Z,3.50
2022-11-18T03:33:32.066Z,3.00
2022-11-18T03:35:59.911Z,3.50
2022-11-18T03:38:29.213Z,3.00
2022-11-18T03:40:59.179Z,3.00
2022-11-18T03:43:28.694Z,3.00
2022-11-18T03:45:58.056Z,3.00
2022-11-18T03:48:28.185Z,3.00
2022-11-18T03:50:58.447Z,3.00
2022-11-18T03:53:27.102Z,3.25
2022-11-18T03:55:58.441Z,3.00
2022-11-18T03:58:28.117Z,2.50
2022-11-18T04:00:59.268Z,3.00
2022-11-18T04:03:28.566Z,2.00
2022-11-18T04:05:58.301Z,2.00
2022-11-18T04:08:28.170Z,2.50
2022-11-18T04:10:58.810Z,1.75
2022-11-18T04:13:27.509Z,1.50
2022-11-18T04:15:55.402Z,2.50
2022-11-18T04:18:23.396Z,2.50
2022-11-18T04:20:52.950Z,1.75
2022-11-18T04:23:20.819Z,2.00
2022-11-18T04:25:48.699Z,2.25
2022-11-18T04:28:16.651Z,2.00
2022-11-18T04:30:44.863Z,2.00
2022-11-18T04:33:12.739Z,1.50
2022-11-18T04:35:40.624Z,2.00
2022-11-18T04:38:09.841Z,0.50
2022-11-18T04:40:37.740Z,1.50
2022-11-18T04:43:05.915Z,2.25
2022-11-18T04:45:33.773Z,1.50
2022-11-18T04:48:03.758Z,2.00
2022-11-18T04:50:31.953Z,1.50
2022-11-18T04:53:00.122Z,2.00
2022-11-18T04:55:29.482Z,2.00
2022-11-18T04:57:57.417Z,1.50
2022-11-18T05:00:25.381Z,2.00
2022-11-18T05:02:53.547Z,1.50
2022-11-18T05:05:21.403Z,2.00
2022-11-18T05:07:49.421Z,1.50
2022-11-18T05:10:27.402Z,2.75
2022-11-18T05:12:56.387Z,2.75
2022-11-18T05:15:24.900Z,3.75
2022-11-18T05:17:52.841Z,3.50
2022-11-18T05:20:20.907Z,4.00
2022-11-18T05:22:49.072Z,4.50
2022-11-18T05:25:17.013Z,5.25
2022-11-18T05:27:44.933Z,6.50
2022-11-18T05:30:15.444Z,5.25
2022-11-18T05:32:44.729Z,6.00
2022-11-18T05:35:16.258Z,5.50
2022-11-18T05:37:44.113Z,7.00
2022-11-18T05:40:30.299Z,6.25
2022-11-18T05:43:12.005Z,9.50
2022-11-18T05:45:44.388Z,9.25
2022-11-18T05:48:16.263Z,9.00
2022-11-18T05:50:44.139Z,7.75
2022-11-18T05:53:12.000Z,9.00
2022-11-18T05:55:58.411Z,9.00
2022-11-18T05:58:26.383Z,11.00
2022-11-18T06:01:00.835Z,8.75
2022-11-18T06:03:36.170Z,10.00
2022-11-18T06:06:04.917Z,10.75
2022-11-18T06:08:33.912Z,10.00
2022-11-18T06:11:04.454Z,10.25
2022-11-18T06:13:33.377Z,11.00
2022-11-18T06:16:02.648Z,11.50
2022-11-18T06:18:32.844Z,11.50
2022-11-18T06:21:02.446Z,12.50
2022-11-18T06:23:33.903Z,11.25
2022-11-18T06:26:01.795Z,10.50
2022-11-18T06:28:29.995Z,10.50
2022-11-18T06:30:59.033Z,10.50
2022-11-18T06:33:28.499Z,10.50
2022-11-18T06:35:57.393Z,10.50
2022-11-18T06:38:25.519Z,11.50
2022-11-18T06:40:57.225Z,10.50
2022-11-18T06:43:41.626Z,12.00
2022-11-18T06:46:30.798Z,10.50
2022-11-18T06:49:00.987Z,11.00
2022-11-18T06:51:29.366Z,11.25
2022-11-18T06:53:57.205Z,10.50
2022-11-18T06:56:28.529Z,11.50
2022-11-18T06:58:59.685Z,10.50
2022-11-18T07:01:28.499Z,10.25
2022-11-18T07:03:56.909Z,10.50
2022-11-18T07:06:31.004Z,10.75
2022-11-18T07:08:59.450Z,10.25
2022-11-18T07:11:29.837Z,11.50
2022-11-18T07:13:59.910Z,10.00
2022-11-18T07:16:28.614Z,10.25
2022-11-18T07:18:57.172Z,9.25
2022-11-18T07:21:27.810Z,10.00
2022-11-18T07:23:55.842Z,9.50
2022-11-18T07:26:23.728Z,9.25
2022-11-18T07:28:51.547Z,8.75
2022-11-18T07:31:21.528Z,9.50
2022-11-18T07:33:49.671Z,8.50
2022-11-18T07:36:21.804Z,7.50
2022-11-18T07:38:51.660Z,8.75
2022-11-18T07:41:20.126Z,8.50
2022-11-18T07:43:48.528Z,9.00
2022-11-18T07:46:18.316Z,7.50
2022-11-18T07:48:47.143Z,7.75
2022-11-18T07:51:15.938Z,6.50
2022-11-18T07:53:43.941Z,6.75
2022-11-18T07:56:13.332Z,8.50
2022-11-18T07:58:41.451Z,7.25
2022-11-18T08:01:10.554Z,6.25
2022-11-18T08:03:38.659Z,7.75
2022-11-18T08:06:07.589Z,7.50
2022-11-18T08:08:35.471Z,6.75
2022-11-18T08:11:06.015Z,7.50
2022-11-18T08:13:35.403Z,6.75
2022-11-18T08:16:03.619Z,6.50
2022-11-18T08:18:31.703Z,6.50
2022-11-18T08:21:03.025Z,8.00
2022-11-18T08:23:33.993Z,6.50
2022-11-18T08:26:04.786Z,7.00
2022-11-18T08:28:32.833Z,6.25
2022-11-18T08:31:02.478Z,6.00
2022-11-18T08:33:30.371Z,5.50
2022-11-18T08:35:58.264Z,5.75
2022-11-18T08:38:26.187Z,6.25
2022-11-18T08:40:54.350Z,6.50
2022-11-18T08:43:22.261Z,5.50
2022-11-18T08:45:50.151Z,5.50
2022-11-18T08:48:19.420Z,7.00
2022-11-18T08:50:47.668Z,5.50
2022-11-18T08:53:17.028Z,6.50
2022-11-18T08:55:44.908Z,5.50
2022-11-18T08:58:12.808Z,5.25
2022-11-18T09:00:40.707Z,5.50
2022-11-18T09:03:08.596Z,6.25
2022-11-18T09:05:37.967Z,5.50
2022-11-18T09:08:06.389Z,5.25
2022-11-18T09:10:35.688Z,5.50
2022-11-18T09:13:33.410Z,5.50
2022-11-18T09:15:51.667Z,5.75
2022-11-18T09:18:19.541Z,5.50
2022-11-18T09:20:56.670Z,5.25
2022-11-18T09:23:24.568Z,5.00
2022-11-18T09:25:59.105Z,5.25
2022-11-18T09:28:27.144Z,4.75
2022-11-18T09:30:55.367Z,5.00
2022-11-18T09:33:23.457Z,4.50
2022-11-18T09:35:51.428Z,4.50
2022-11-18T09:38:20.717Z,4.50
2022-11-18T09:40:53.902Z,4.00
2022-11-18T09:43:24.378Z,4.50
2022-11-18T09:45:55.303Z,4.50
2022-11-18T09:48:45.250Z,5.00
2022-11-18T09:51:13.121Z,5.50
2022-11-18T09:53:43.159Z,5.00
2022-11-18T09:56:14.008Z,4.50
2022-11-18T09:58:41.927Z,4.50
2022-11-18T10:01:12.946Z,4.50
2022-11-18T10:03:41.001Z,5.00
2022-11-18T10:06:22.043Z,2.50
2022-11-18T10:09:01.343Z,3.75
2022-11-18T10:11:36.102Z,3.75
2022-11-18T10:14:14.670Z,4.00
2022-11-18T10:16:47.367Z,4.00
2022-11-18T10:19:24.197Z,4.25
2022-11-18T10:21:56.989Z,3.75
2022-11-18T10:24:26.867Z,4.50
2022-11-18T10:26:56.320Z,3.50
2022-11-18T10:29:24.199Z,3.50
2022-11-18T10:32:01.148Z,4.00
2022-11-18T10:34:31.938Z,3.00
2022-11-18T10:37:00.896Z,2.75
2022-11-18T10:39:30.198Z,3.50
2022-11-18T10:42:01.560Z,2.50
2022-11-18T10:44:34.451Z,3.50
2022-11-18T10:47:30.345Z,3.50
2022-11-18T10:49:59.775Z,3.75
2022-11-18T10:52:28.234Z,2.75
2022-11-18T10:55:27.384Z,3.75
2022-11-18T10:57:57.522Z,3.50
2022-11-18T11:00:43.292Z,3.00
2022-11-18T11:03:35.539Z,3.25
2022-11-18T11:06:30.161Z,3.00
2022-11-18T11:08:58.963Z,2.75
2022-11-18T11:11:29.981Z,2.75
2022-11-18T11:14:02.955Z,3.75
2022-11-18T11:16:30.868Z,3.00
2022-11-18T11:19:01.169Z,2.50
2022-11-18T11:21:29.075Z,2.50
2022-11-18T11:23:56.979Z,2.50
2022-11-18T11:29:27.194Z,2.00
2022-11-18T11:31:58.625Z,2.75
2022-11-18T11:34:28.634Z,2.75
2022-11-18T11:36:58.519Z,2.50
2022-11-18T11:39:44.052Z,2.50
2022-11-18T11:42:18.668Z,2.75
2022-11-18T11:44:54.364Z,2.75
2022-11-18T11:47:44.527Z,1.75
2022-11-18T11:50:14.964Z,2.50
2022-11-18T11:52:46.866Z,2.75
2022-11-18T11:55:18.485Z,2.75
2022-11-18T11:57:58.912Z,2.50
2022-11-18T12:00:28.884Z,2.00
2022-11-18T12:03:04.584Z,1.75
2022-11-18T12:05:34.518Z,3.00
2022-11-18T12:08:03.309Z,1.50
2022-11-18T12:10:37.395Z,2.00
2022-11-18T12:13:17.108Z,3.00
2022-11-18T12:16:00.267Z,2.75
2022-11-18T12:18:30.843Z,1.75
2022-11-18T12:20:58.931Z,2.00
2022-11-18T12:23:27.514Z,2.75
2022-11-18T12:26:06.224Z,1.50
2022-11-18T12:28:37.891Z,1.75
2022-11-18T12:31:42.545Z,1.50
2022-11-18T12:34:21.536Z,2.00
2022-11-18T12:36:49.449Z,1.75
2022-11-18T12:39:47.275Z,3.00
2022-11-18T12:43:00.022Z,2.75
2022-11-18T12:45:51.945Z,2.00
2022-11-18T12:48:37.363Z,3.75
2022-11-18T12:51:39.956Z,2.75
2022-11-18T12:54:21.558Z,3.75
2022-11-18T12:56:49.588Z,4.75
2022-11-18T12:59:17.771Z,4.00
2022-11-18T13:01:47.140Z,5.75
2022-11-18T13:04:16.614Z,6.00
2022-11-18T13:06:44.871Z,6.50
2022-11-18T13:09:16.136Z,5.50
2022-11-18T13:11:46.374Z,6.00
2022-11-18T13:14:34.441Z,6.50
2022-11-18T13:17:21.281Z,6.75
2022-11-18T13:19:58.176Z,6.75
2022-11-18T13:22:44.028Z,7.50
2022-11-18T13:25:25.632Z,8.00
2022-11-18T13:27:57.298Z,7.50
2022-11-18T13:30:25.331Z,6.75
2022-11-18T13:32:55.040Z,8.00
2022-11-18T13:35:27.187Z,8.25
2022-11-18T13:37:55.938Z,9.00
2022-11-18T13:40:25.950Z,8.50
2022-11-18T13:42:53.893Z,6.25
2022-11-18T13:45:21.896Z,7.50
2022-11-18T13:47:50.756Z,7.00
2022-11-18T13:50:22.732Z,8.00
2022-11-18T13:52:54.393Z,8.00
2022-11-18T13:55:23.421Z,7.50
2022-11-18T13:57:52.145Z,11.00
2022-11-18T14:00:24.351Z,7.75
2022-11-18T14:02:58.038Z,8.25
2022-11-18T14:05:27.341Z,10.25
2022-11-18T14:08:01.465Z,10.25
2022-11-18T14:10:41.601Z,10.50
2022-11-18T14:13:21.893Z,11.00
2022-11-18T14:15:49.835Z,11.00
2022-11-18T14:18:20.950Z,11.25
2022-11-18T14:20:54.754Z,11.00
2022-11-18T14:23:27.301Z,11.00
2022-11-18T14:25:55.232Z,11.00
2022-11-18T14:28:24.590Z,9.25
2022-11-18T14:31:07.344Z,12.25
2022-11-18T14:33:37.308Z,11.75
2022-11-18T14:36:11.743Z,10.00
2022-11-18T14:39:04.021Z,10.00
2022-11-18T14:41:49.722Z,12.25
2022-11-18T14:44:17.959Z,11.25
2022-11-18T14:46:46.946Z,11.75
2022-11-18T14:49:16.558Z,10.25
2022-11-18T14:51:46.057Z,11.50
2022-11-18T14:54:17.261Z,11.25
2022-11-18T14:56:47.726Z,11.25
2022-11-18T14:59:15.951Z,12.25
2022-11-18T15:01:44.227Z,10.50
2022-11-18T15:04:12.106Z,12.00
2022-11-18T15:06:40.339Z,10.50
2022-11-18T15:09:09.966Z,10.50
2022-11-18T15:11:38.165Z,11.00
2022-11-18T15:14:06.099Z,11.50
2022-11-18T15:16:34.344Z,10.50
2022-11-18T15:19:03.553Z,11.25
2022-11-18T15:21:31.483Z,11.75
2022-11-18T15:23:59.440Z,10.50
2022-11-18T15:26:29.472Z,10.75
2022-11-18T15:28:57.996Z,10.50
2022-11-18T15:31:26.365Z,9.50
2022-11-18T15:33:54.377Z,9.50
2022-11-18T15:36:23.062Z,10.50
2022-11-18T15:38:51.009Z,11.50
2022-11-18T15:41:21.014Z,9.75
2022-11-18T15:43:50.731Z,9.50
2022-11-18T15:46:20.098Z,10.00
2022-11-18T15:48:48.321Z,10.25
2022-11-18T15:51:16.642Z,9.50
2022-11-18T15:53:44.614Z,9.75
2022-11-18T15:56:17.027Z,9.50
2022-11-18T15:58:45.237Z,9.50
2022-11-18T16:01:17.417Z,8.25
2022-11-18T16:03:45.311Z,8.50
2022-11-18T16:06:13.167Z,8.25
2022-11-18T16:08:41.035Z,9.50
2022-11-18T16:11:29.165Z,9.25
2022-11-18T16:14:01.156Z,9.50
2022-11-18T16:16:31.254Z,8.50
2022-11-18T16:18:59.478Z,9.50
2022-11-18T16:21:28.042Z,7.50
2022-11-18T16:23:57.987Z,7.50
2022-11-18T16:26:26.020Z,7.50
2022-11-18T16:28:54.003Z,7.50
2022-11-18T16:31:39.753Z,7.75
2022-11-18T16:34:09.288Z,7.50
2022-11-18T16:36:37.230Z,7.50
2022-11-18T16:39:06.435Z,8.50
2022-11-18T16:41:34.794Z,8.00
2022-11-18T16:44:04.507Z,6.50
2022-11-18T16:46:33.039Z,7.50
2022-11-18T16:49:01.098Z,8.25
2022-11-18T16:51:31.118Z,7.50
2022-11-18T16:54:00.011Z,7.25
2022-11-18T16:56:28.925Z,7.50
2022-11-18T16:59:00.467Z,6.75
2022-11-18T17:01:30.314Z,7.25
2022-11-18T17:04:00.415Z,7.25
2022-11-18T17:06:28.434Z,7.50
2022-11-18T17:08:57.735Z,8.00
2022-11-18T17:11:25.574Z,8.25
2022-11-18T17:13:57.754Z,8.00
2022-11-18T17:16:26.360Z,7.50
2022-11-18T17:18:57.621Z,7.75
2022-11-18T17:21:25.701Z,7.50
2022-11-18T17:23:53.634Z,7.25
2022-11-18T17:26:23.839Z,8.75
2022-11-18T17:28:51.751Z,7.25
2022-11-18T17:31:20.331Z,6.75
2022-11-18T17:33:48.502Z,8.00
2022-11-18T17:36:17.547Z,7.50
2022-11-18T17:38:46.040Z,7.25
2022-11-18T17:41:34.855Z,7.50
2022-11-18T17:44:04.801Z,7.50
2022-11-18T17:46:37.730Z,7.50
2022-11-18T17:49:07.147Z,9.00
2022-11-18T17:51:35.034Z,9.50
2022-11-18T17:54:02.915Z,7.75
2022-11-18T17:56:31.211Z,8.50
2022-11-18T17:58:59.214Z,8.25
2022-11-18T18:01:28.565Z,8.75
2022-11-18T18:03:56.607Z,10.00
2022-11-18T18:06:24.469Z,9.50
2022-11-18T18:08:56.481Z,10.50
2022-11-18T18:11:24.366Z,9.75
2022-11-18T18:14:09.711Z,10.50
2022-11-18T18:16:39.140Z,11.75
2022-11-18T18:19:07.480Z,11.00
2022-11-18T18:21:35.809Z,10.50
2022-11-18T18:24:04.981Z,10.25
2022-11-18T18:26:32.948Z,11.00
2022-11-18T18:29:00.932Z,10.50
2022-11-18T18:31:28.919Z,12.25
2022-11-18T18:33:58.653Z,9.75
2022-11-18T18:36:26.567Z,12.50
2022-11-18T18:38:54.445Z,12.25
2022-11-18T18:41:23.333Z,11.50
2022-11-18T18:43:51.404Z,11.75
2022-11-18T18:46:33.935Z,11.00
2022-11-18T18:49:05.580Z,12.50
2022-11-18T18:51:36.127Z,12.75
2022-11-18T18:54:04.053Z,12.00
2022-11-18T18:56:31.907Z,11.50
2022-11-18T18:58:59.804Z,11.50
2022-11-18T19:01:27.866Z,11.50
2022-11-18T19:03:56.641Z,12.25
2022-11-18T19:06:51.694Z,11.75
2022-11-18T19:09:14.930Z,12.50
2022-11-18T19:12:00.949Z,12.00
2022-11-18T19:14:29.231Z,10.75
2022-11-18T19:16:57.371Z,10.50
2022-11-18T19:19:40.104Z,11.50
2022-11-18T19:22:10.149Z,12.00
2022-11-18T19:24:49.395Z,12.00
2022-11-18T19:27:18.408Z,12.75
2022-11-18T19:29:46.302Z,13.00
2022-11-18T19:32:14.500Z,11.25
2022-11-18T19:34:42.412Z,11.25
2022-11-18T19:37:11.736Z,11.50
2022-11-18T19:39:39.634Z,11.75
2022-11-18T19:42:07.877Z,11.50
2022-11-18T19:44:35.732Z,10.75
2022-11-18T19:47:03.622Z,10.00
2022-11-18T19:49:32.010Z,11.50
2022-11-18T19:51:59.922Z,10.75
2022-11-18T19:54:29.177Z,10.25
2022-11-18T19:56:57.439Z,10.50
2022-11-18T19:59:25.350Z,11.00
2022-11-18T20:01:53.596Z,10.75
2022-11-18T20:04:21.569Z,9.75
2022-11-18T20:06:49.562Z,11.00
2022-11-18T20:09:18.345Z,10.00
2022-11-18T20:11:47.884Z,9.25
2022-11-18T20:14:15.833Z,9.75
2022-11-18T20:16:43.710Z,10.25
2022-11-18T20:19:13.612Z,10.25
2022-11-18T20:21:43.227Z,10.00
2022-11-18T20:24:14.180Z,9.50
2022-11-18T20:26:42.082Z,9.75
2022-11-18T20:29:11.321Z,10.50
2022-11-18T20:31:39.218Z,9.50
2022-11-18T20:34:07.117Z,9.50
2022-11-18T20:36:35.899Z,9.75
2022-11-18T20:39:04.807Z,8.50
2022-11-18T20:41:32.722Z,9.50
2022-11-18T20:44:00.682Z,10.25
2022-11-18T20:46:30.087Z,10.50
2022-11-18T20:48:57.955Z,9.75
2022-11-18T20:51:26.744Z,8.75
2022-11-18T20:53:55.503Z,9.75
2022-11-18T20:56:24.634Z,9.25
2022-11-18T20:58:52.514Z,9.50
2022-11-18T21:01:21.350Z,9.50
2022-11-18T21:03:52.614Z,9.00
2022-11-18T21:06:20.694Z,10.25
2022-11-18T21:08:48.610Z,8.25
2022-11-18T21:11:17.205Z,7.75
2022-11-18T21:14:02.278Z,10.75
2022-11-18T21:16:30.230Z,8.75
2022-11-18T21:18:59.545Z,10.00
2022-11-18T21:21:44.778Z,9.00
2022-11-18T21:24:12.882Z,10.00
2022-11-18T21:26:41.059Z,9.25
2022-11-18T21:29:10.253Z,9.50
2022-11-18T21:31:38.242Z,8.50
2022-11-18T21:34:07.556Z,10.25
2022-11-18T21:36:37.897Z,9.00
2022-11-18T21:39:09.422Z,9.50
2022-11-18T21:41:37.404Z,8.50
2022-11-18T21:44:06.617Z,8.00
2022-11-18T21:46:34.833Z,9.25
2022-11-18T21:49:02.756Z,8.00
2022-11-18T21:51:32.410Z,9.00
2022-11-18T21:54:00.765Z,8.75
2022-11-18T21:56:30.850Z,7.50
2022-11-18T21:58:59.711Z,8.75
2022-11-18T22:01:28.653Z,8.25
2022-11-18T22:03:57.354Z,7.75
2022-11-18T22:06:25.478Z,9.50
2022-11-18T22:08:54.743Z,10.00
2022-11-18T22:11:22.750Z,7.50
2022-11-18T22:13:50.803Z,7.50
2022-11-18T22:16:19.359Z,7.50
2022-11-18T22:18:53.110Z,8.25
2022-11-18T22:21:26.108Z,10.00
2022-11-18T22:23:57.600Z,8.50
2022-11-18T22:26:25.547Z,7.50
2022-11-18T22:28:53.975Z,9.50
2022-11-18T22:31:22.600Z,8.00
2022-11-18T22:33:50.729Z,8.50
2022-11-18T22:36:20.213Z,8.50
2022-11-18T22:38:48.126Z,9.25
2022-11-18T22:41:32.841Z,7.50
2022-11-18T22:44:05.680Z,8.75
2022-11-18T22:46:35.550Z,7.00
2022-11-18T22:49:03.638Z,8.75
2022-11-18T22:51:31.509Z,6.50
2022-11-18T22:54:30.840Z,7.75
2022-11-18T22:56:48.788Z,8.00
2022-11-18T22:59:17.254Z,8.25
2022-11-18T23:01:45.374Z,7.00
2022-11-18T23:04:13.306Z,6.75
2022-11-18T23:06:41.168Z,7.00
2022-11-18T23:09:10.385Z,7.50
2022-11-18T23:11:55.843Z,7.50
2022-11-18T23:14:25.151Z,9.00
2022-11-18T23:16:53.041Z,8.00
2022-11-18T23:19:21.350Z,7.50
2022-11-18T23:21:49.472Z,7.75
2022-11-18T23:24:18.276Z,7.25
2022-11-18T23:26:46.232Z,7.50
2022-11-18T23:29:14.469Z,6.50
2022-11-18T23:31:44.174Z,7.25
2022-11-18T23:34:12.722Z,7.50
2022-11-18T23:36:40.784Z,8.00
2022-11-18T23:39:08.690Z,7.75
2022-11-18T23:41:36.575Z,7.75
2022-11-18T23:44:04.713Z,6.75
2022-11-18T23:46:32.699Z,7.00
2022-11-18T23:49:02.016Z,8.00
2022-11-18T23:51:29.881Z,6.50
2022-11-18T23:53:58.177Z,6.25
2022-11-18T23:56:26.960Z,7.25
2022-11-18T23:58:56.511Z,7.25
